sensor_id;sensor_type;location;lat;lon;timestamp;pressure;altitude;pressure_sealevel;temperature;humidity
52975;BME280;38839;45.186;5.720;2023-02-03T00:01:56;100896.31;;;4.73;64.44
52975;BME280;38839;45.186;5.720;2023-02-03T00:04:21;100889.28;;;4.71;64.75
52975;BME280;38839;45.186;5.720;2023-02-03T00:06:47;100891.00;;;4.70;64.77
52975;BME280;38839;45.186;5.720;2023-02-03T00:09:13;100899.06;;;4.76;64.55
52975;BME280;38839;45.186;5.720;2023-02-03T00:11:39;100901.94;;;4.82;64.25
52975;BME280;38839;45.186;5.720;2023-02-03T00:14:04;100900.44;;;4.88;64.04
52975;BME280;38839;45.186;5.720;2023-02-03T00:16:32;100898.81;;;4.90;63.86
52975;BME280;38839;45.186;5.720;2023-02-03T00:18:57;100897.44;;;4.96;63.75
52975;BME280;38839;45.186;5.720;2023-02-03T00:21:23;100900.06;;;4.98;63.64
52975;BME280;38839;45.186;5.720;2023-02-03T00:23:48;100901.41;;;4.90;63.80
52975;BME280;38839;45.186;5.720;2023-02-03T00:26:15;100900.72;;;4.94;63.92
52975;BME280;38839;45.186;5.720;2023-02-03T00:28:40;100903.31;;;4.94;63.91
52975;BME280;38839;45.186;5.720;2023-02-03T00:31:13;100896.19;;;4.88;63.82
52975;BME280;38839;45.186;5.720;2023-02-03T00:33:39;100904.72;;;4.87;63.98
52975;BME280;38839;45.186;5.720;2023-02-03T00:36:05;100897.94;;;4.89;63.93
52975;BME280;38839;45.186;5.720;2023-02-03T00:38:30;100898.69;;;4.87;63.88
52975;BME280;38839;45.186;5.720;2023-02-03T00:40:56;100900.31;;;4.84;63.84
52975;BME280;38839;45.186;5.720;2023-02-03T00:43:21;100899.41;;;4.66;64.53
52975;BME280;38839;45.186;5.720;2023-02-03T00:45:46;100890.53;;;4.61;64.38
52975;BME280;38839;45.186;5.720;2023-02-03T00:48:12;100889.66;;;4.60;65.00
52975;BME280;38839;45.186;5.720;2023-02-03T00:50:38;100899.25;;;4.63;64.49
52975;BME280;38839;45.186;5.720;2023-02-03T00:53:04;100892.16;;;4.59;64.69
52975;BME280;38839;45.186;5.720;2023-02-03T00:55:29;100892.09;;;4.57;64.71
52975;BME280;38839;45.186;5.720;2023-02-03T00:57:54;100892.03;;;4.56;64.88
52975;BME280;38839;45.186;5.720;2023-02-03T01:00:20;100895.41;;;4.55;64.80
52975;BME280;38839;45.186;5.720;2023-02-03T01:02:46;100885.22;;;4.58;64.74
52975;BME280;38839;45.186;5.720;2023-02-03T01:05:11;100896.72;;;4.47;65.08
52975;BME280;38839;45.186;5.720;2023-02-03T01:07:37;100889.63;;;4.42;65.14
52975;BME280;38839;45.186;5.720;2023-02-03T01:10:03;100893.03;;;4.41;65.24
52975;BME280;38839;45.186;5.720;2023-02-03T01:12:30;100894.81;;;4.42;65.12
52975;BME280;38839;45.186;5.720;2023-02-03T01:14:56;100890.16;;;4.35;65.62
52975;BME280;38839;45.186;5.720;2023-02-03T01:17:21;100894.50;;;4.36;65.46
52975;BME280;38839;45.186;5.720;2023-02-03T01:19:47;100886.69;;;4.35;65.58
52975;BME280;38839;45.186;5.720;2023-02-03T01:22:12;100885.66;;;4.31;65.44
52975;BME280;38839;45.186;5.720;2023-02-03T01:24:38;100887.09;;;4.26;65.59
52975;BME280;38839;45.186;5.720;2023-02-03T01:27:03;100886.13;;;4.24;66.04
52975;BME280;38839;45.186;5.720;2023-02-03T01:29:30;100892.69;;;4.17;66.38
52975;BME280;38839;45.186;5.720;2023-02-03T01:31:55;100891.06;;;4.19;66.27
52975;BME280;38839;45.186;5.720;2023-02-03T01:34:21;100890.28;;;4.20;66.14
52975;BME280;38839;45.186;5.720;2023-02-03T01:36:46;100897.00;;;4.00;66.61
52975;BME280;38839;45.186;5.720;2023-02-03T01:39:11;100896.50;;;4.08;66.24
52975;BME280;38839;45.186;5.720;2023-02-03T01:41:38;100899.91;;;4.07;66.95
52975;BME280;38839;45.186;5.720;2023-02-03T01:47:01;100895.78;;;4.10;66.88
52975;BME280;38839;45.186;5.720;2023-02-03T01:49:31;100900.03;;;4.10;66.65
52975;BME280;38839;45.186;5.720;2023-02-03T01:51:58;100899.81;;;4.05;66.99
52975;BME280;38839;45.186;5.720;2023-02-03T01:54:30;100892.16;;;4.07;66.68
52975;BME280;38839;45.186;5.720;2023-02-03T01:57:16;100898.28;;;4.09;66.48
52975;BME280;38839;45.186;5.720;2023-02-03T01:59:44;100898.72;;;4.00;66.77
52975;BME280;38839;45.186;5.720;2023-02-03T02:02:11;100890.72;;;3.95;67.01
52975;BME280;38839;45.186;5.720;2023-02-03T02:05:12;100887.16;;;3.93;67.06
52975;BME280;38839;45.186;5.720;2023-02-03T02:07:40;100881.34;;;3.97;66.96
52975;BME280;38839;45.186;5.720;2023-02-03T02:10:06;100880.38;;;3.95;67.11
52975;BME280;38839;45.186;5.720;2023-02-03T02:12:31;100877.25;;;3.85;67.43
52975;BME280;38839;45.186;5.720;2023-02-03T02:14:57;100877.25;;;3.85;67.27
52975;BME280;38839;45.186;5.720;2023-02-03T02:17:53;100881.97;;;3.75;67.65
52975;BME280;38839;45.186;5.720;2023-02-03T02:29:23;100885.88;;;3.69;68.39
52975;BME280;38839;45.186;5.720;2023-02-03T02:40:14;100893.81;;;3.88;67.66
52975;BME280;38839;45.186;5.720;2023-02-03T02:45:31;100895.41;;;3.86;67.74
52975;BME280;38839;45.186;5.720;2023-02-03T02:48:07;100898.97;;;3.88;67.97
52975;BME280;38839;45.186;5.720;2023-02-03T02:50:39;100893.81;;;3.88;67.68
52975;BME280;38839;45.186;5.720;2023-02-03T02:53:07;100893.31;;;3.79;67.93
52975;BME280;38839;45.186;5.720;2023-02-03T02:55:36;100889.09;;;3.81;67.78
52975;BME280;38839;45.186;5.720;2023-02-03T02:58:06;100895.09;;;3.80;67.81
52975;BME280;38839;45.186;5.720;2023-02-03T03:00:34;100897.44;;;3.75;68.14
52975;BME280;38839;45.186;5.720;2023-02-03T03:03:20;100901.38;;;3.69;68.37
52975;BME280;38839;45.186;5.720;2023-02-03T03:06:18;100898.78;;;3.69;68.51
52975;BME280;38839;45.186;5.720;2023-02-03T03:08:56;100892.75;;;3.68;68.49
52975;BME280;38839;45.186;5.720;2023-02-03T03:11:26;100891.88;;;3.68;68.59
52975;BME280;38839;45.186;5.720;2023-02-03T03:13:54;100896.38;;;3.72;68.31
52975;BME280;38839;45.186;5.720;2023-02-03T03:16:23;100891.06;;;3.69;68.50
52975;BME280;38839;45.186;5.720;2023-02-03T03:18:53;100889.69;;;3.75;68.22
52975;BME280;38839;45.186;5.720;2023-02-03T03:21:30;100885.97;;;3.70;68.49
52975;BME280;38839;45.186;5.720;2023-02-03T03:24:00;100887.34;;;3.63;68.77
52975;BME280;38839;45.186;5.720;2023-02-03T03:26:49;100888.66;;;3.55;69.17
52975;BME280;38839;45.186;5.720;2023-02-03T03:29:27;100885.25;;;3.56;69.06
52975;BME280;38839;45.186;5.720;2023-02-03T03:31:54;100888.47;;;3.52;69.30
52975;BME280;38839;45.186;5.720;2023-02-03T03:34:20;100887.03;;;3.41;69.50
52975;BME280;38839;45.186;5.720;2023-02-03T03:36:46;100889.69;;;3.42;69.47
52975;BME280;38839;45.186;5.720;2023-02-03T03:44:15;100901.53;;;3.39;69.41
52975;BME280;38839;45.186;5.720;2023-02-03T03:46:49;100908.31;;;3.37;69.55
52975;BME280;38839;45.186;5.720;2023-02-03T03:49:17;100904.75;;;3.35;69.67
52975;BME280;38839;45.186;5.720;2023-02-03T03:51:48;100902.31;;;3.38;69.70
52975;BME280;38839;45.186;5.720;2023-02-03T03:54:19;100898.97;;;3.39;69.36
52975;BME280;38839;45.186;5.720;2023-02-03T03:56:52;100905.25;;;3.44;69.36
52975;BME280;38839;45.186;5.720;2023-02-03T03:59:24;100910.97;;;3.38;69.41
52975;BME280;38839;45.186;5.720;2023-02-03T04:01:50;100916.13;;;3.38;69.37
52975;BME280;38839;45.186;5.720;2023-02-03T04:04:16;100910.78;;;3.35;69.50
52975;BME280;38839;45.186;5.720;2023-02-03T04:06:42;100899.41;;;3.32;69.81
52975;BME280;38839;45.186;5.720;2023-02-03T04:09:08;100904.56;;;3.32;70.09
52975;BME280;38839;45.186;5.720;2023-02-03T04:11:33;100914.00;;;3.31;69.72
52975;BME280;38839;45.186;5.720;2023-02-03T04:14:17;100917.22;;;3.27;69.86
52975;BME280;38839;45.186;5.720;2023-02-03T04:16:42;100920.78;;;3.29;69.71
52975;BME280;38839;45.186;5.720;2023-02-03T04:19:08;100916.91;;;3.21;70.06
52975;BME280;38839;45.186;5.720;2023-02-03T04:21:33;100916.66;;;3.16;69.95
52975;BME280;38839;45.186;5.720;2023-02-03T04:23:58;100919.00;;;3.12;70.37
52975;BME280;38839;45.186;5.720;2023-02-03T04:26:24;100913.16;;;2.99;70.59
52975;BME280;38839;45.186;5.720;2023-02-03T04:28:49;100915.94;;;2.88;71.01
52975;BME280;38839;45.186;5.720;2023-02-03T04:31:15;100924.44;;;2.87;71.40
52975;BME280;38839;45.186;5.720;2023-02-03T04:33:41;100923.81;;;2.91;71.13
52975;BME280;38839;45.186;5.720;2023-02-03T04:36:06;100917.41;;;2.99;70.80
52975;BME280;38839;45.186;5.720;2023-02-03T04:38:32;100919.09;;;2.98;70.62
52975;BME280;38839;45.186;5.720;2023-02-03T04:40:57;100924.97;;;2.96;70.61
52975;BME280;38839;45.186;5.720;2023-02-03T04:43:23;100915.19;;;2.90;70.71
52975;BME280;38839;45.186;5.720;2023-02-03T04:45:49;100917.69;;;2.89;70.77
52975;BME280;38839;45.186;5.720;2023-02-03T04:48:14;100913.00;;;2.81;71.13
52975;BME280;38839;45.186;5.720;2023-02-03T04:50:39;100924.09;;;2.80;70.88
52975;BME280;38839;45.186;5.720;2023-02-03T04:53:05;100928.75;;;2.71;71.13
52975;BME280;38839;45.186;5.720;2023-02-03T04:55:30;100933.28;;;2.75;71.33
52975;BME280;38839;45.186;5.720;2023-02-03T04:57:57;100917.63;;;2.72;71.71
52975;BME280;38839;45.186;5.720;2023-02-03T05:00:23;100919.31;;;2.72;71.55
52975;BME280;38839;45.186;5.720;2023-02-03T05:02:48;100924.66;;;2.75;71.57
52975;BME280;38839;45.186;5.720;2023-02-03T05:05:14;100916.75;;;2.72;71.30
52975;BME280;38839;45.186;5.720;2023-02-03T05:07:39;100914.25;;;2.73;71.51
52975;BME280;38839;45.186;5.720;2023-02-03T05:10:05;100916.50;;;2.67;72.07
52975;BME280;38839;45.186;5.720;2023-02-03T05:12:30;100909.53;;;2.66;71.77
52975;BME280;38839;45.186;5.720;2023-02-03T05:14:55;100913.09;;;2.68;71.66
52975;BME280;38839;45.186;5.720;2023-02-03T05:17:21;100910.88;;;2.74;71.32
52975;BME280;38839;45.186;5.720;2023-02-03T05:19:46;100908.13;;;2.71;71.58
52975;BME280;38839;45.186;5.720;2023-02-03T05:22:12;100905.81;;;2.76;71.22
52975;BME280;38839;45.186;5.720;2023-02-03T05:24:40;100903.34;;;2.63;72.03
52975;BME280;38839;45.186;5.720;2023-02-03T05:27:05;100906.47;;;2.57;72.02
52975;BME280;38839;45.186;5.720;2023-02-03T05:29:31;100898.09;;;2.61;71.78
52975;BME280;38839;45.186;5.720;2023-02-03T05:31:56;100895.00;;;2.67;71.79
52975;BME280;38839;45.186;5.720;2023-02-03T05:34:21;100889.13;;;2.69;71.44
52975;BME280;38839;45.186;5.720;2023-02-03T05:36:47;100889.22;;;2.71;71.47
52975;BME280;38839;45.186;5.720;2023-02-03T05:39:12;100880.56;;;2.70;71.57
52975;BME280;38839;45.186;5.720;2023-02-03T05:41:37;100880.41;;;2.67;71.69
52975;BME280;38839;45.186;5.720;2023-02-03T05:44:20;100874.53;;;2.70;72.17
52975;BME280;38839;45.186;5.720;2023-02-03T05:46:45;100870.09;;;2.67;71.99
52975;BME280;38839;45.186;5.720;2023-02-03T05:49:11;100871.88;;;2.68;71.66
52975;BME280;38839;45.186;5.720;2023-02-03T05:51:37;100860.78;;;2.69;71.86
52975;BME280;38839;45.186;5.720;2023-02-03T05:54:03;100854.75;;;2.69;71.86
52975;BME280;38839;45.186;5.720;2023-02-03T05:56:29;100871.72;;;2.65;72.13
52975;BME280;38839;45.186;5.720;2023-02-03T05:58:54;100870.56;;;2.60;72.17
52975;BME280;38839;45.186;5.720;2023-02-03T06:01:19;100871.19;;;2.56;72.23
52975;BME280;38839;45.186;5.720;2023-02-03T06:03:45;100871.38;;;2.59;72.17
52975;BME280;38839;45.186;5.720;2023-02-03T06:06:11;100866.94;;;2.56;72.05
52975;BME280;38839;45.186;5.720;2023-02-03T06:08:36;100862.47;;;2.54;72.07
52975;BME280;38839;45.186;5.720;2023-02-03T06:11:02;100869.56;;;2.58;72.22
52975;BME280;38839;45.186;5.720;2023-02-03T06:13:27;100863.91;;;2.49;72.48
52975;BME280;38839;45.186;5.720;2023-02-03T06:15:53;100878.03;;;2.55;72.31
52975;BME280;38839;45.186;5.720;2023-02-03T06:18:18;100880.97;;;2.47;72.65
52975;BME280;38839;45.186;5.720;2023-02-03T06:20:44;100876.78;;;2.49;72.70
52975;BME280;38839;45.186;5.720;2023-02-03T06:23:09;100874.03;;;2.46;72.72
52975;BME280;38839;45.186;5.720;2023-02-03T06:25:35;100879.66;;;2.38;72.46
52975;BME280;38839;45.186;5.720;2023-02-03T06:28:00;100883.38;;;2.44;72.50
52975;BME280;38839;45.186;5.720;2023-02-03T06:30:26;100889.66;;;2.64;72.34
52975;BME280;38839;45.186;5.720;2023-02-03T06:32:51;100881.13;;;2.65;72.22
52975;BME280;38839;45.186;5.720;2023-02-03T06:35:17;100880.91;;;2.76;71.77
52975;BME280;38839;45.186;5.720;2023-02-03T06:37:42;100895.69;;;2.79;71.74
52975;BME280;38839;45.186;5.720;2023-02-03T06:40:09;100906.00;;;2.79;71.86
52975;BME280;38839;45.186;5.720;2023-02-03T06:42:35;100904.78;;;2.89;71.59
52975;BME280;38839;45.186;5.720;2023-02-03T06:45:00;100898.25;;;2.79;71.73
52975;BME280;38839;45.186;5.720;2023-02-03T06:47:25;100891.06;;;2.73;71.78
52975;BME280;38839;45.186;5.720;2023-02-03T06:49:51;100895.31;;;2.88;71.28
52975;BME280;38839;45.186;5.720;2023-02-03T06:52:17;100903.66;;;2.84;71.37
52975;BME280;38839;45.186;5.720;2023-02-03T06:54:43;100899.28;;;2.82;71.60
52975;BME280;38839;45.186;5.720;2023-02-03T06:57:08;100900.91;;;2.80;71.53
52975;BME280;38839;45.186;5.720;2023-02-03T06:59:33;100893.00;;;2.77;71.75
52975;BME280;38839;45.186;5.720;2023-02-03T07:01:59;100887.84;;;2.77;71.83
52975;BME280;38839;45.186;5.720;2023-02-03T07:04:24;100886.88;;;2.75;71.76
52975;BME280;38839;45.186;5.720;2023-02-03T07:06:52;100904.75;;;2.87;71.31
52975;BME280;38839;45.186;5.720;2023-02-03T07:09:18;100906.84;;;2.94;71.33
52975;BME280;38839;45.186;5.720;2023-02-03T07:11:43;100898.31;;;2.95;70.94
52975;BME280;38839;45.186;5.720;2023-02-03T07:14:08;100904.16;;;2.93;71.04
52975;BME280;38839;45.186;5.720;2023-02-03T07:16:34;100900.06;;;2.96;70.86
52975;BME280;38839;45.186;5.720;2023-02-03T07:19:01;100909.03;;;3.03;70.58
52975;BME280;38839;45.186;5.720;2023-02-03T07:21:27;100914.81;;;2.99;70.65
52975;BME280;38839;45.186;5.720;2023-02-03T07:23:52;100921.59;;;2.97;70.51
52975;BME280;38839;45.186;5.720;2023-02-03T07:26:18;100924.63;;;2.90;70.57
52975;BME280;38839;45.186;5.720;2023-02-03T07:28:44;100926.41;;;2.91;70.89
52975;BME280;38839;45.186;5.720;2023-02-03T07:31:09;100913.78;;;2.80;70.92
52975;BME280;38839;45.186;5.720;2023-02-03T07:33:38;100917.34;;;2.82;70.80
52975;BME280;38839;45.186;5.720;2023-02-03T07:36:04;100918.16;;;2.81;70.83
52975;BME280;38839;45.186;5.720;2023-02-03T07:38:30;100922.84;;;2.89;70.88
52975;BME280;38839;45.186;5.720;2023-02-03T07:40:56;100918.94;;;2.95;70.51
52975;BME280;38839;45.186;5.720;2023-02-03T07:43:22;100928.88;;;3.04;70.19
52975;BME280;38839;45.186;5.720;2023-02-03T07:45:48;100936.31;;;3.14;69.78
52975;BME280;38839;45.186;5.720;2023-02-03T07:48:13;100939.03;;;3.17;69.61
52975;BME280;38839;45.186;5.720;2023-02-03T07:50:39;100953.88;;;3.21;69.80
52975;BME280;38839;45.186;5.720;2023-02-03T07:53:05;100961.19;;;3.29;69.52
52975;BME280;38839;45.186;5.720;2023-02-03T07:55:33;100960.66;;;3.19;69.42
52975;BME280;38839;45.186;5.720;2023-02-03T07:57:58;100981.22;;;3.18;69.47
52975;BME280;38839;45.186;5.720;2023-02-03T08:00:24;100967.75;;;2.92;70.06
52975;BME280;38839;45.186;5.720;2023-02-03T08:02:50;100979.66;;;2.75;70.77
52975;BME280;38839;45.186;5.720;2023-02-03T08:05:15;100989.50;;;2.82;70.70
52975;BME280;38839;45.186;5.720;2023-02-03T08:07:42;100992.00;;;2.66;70.95
52975;BME280;38839;45.186;5.720;2023-02-03T08:10:11;100997.53;;;2.87;70.74
52975;BME280;38839;45.186;5.720;2023-02-03T08:12:36;101003.19;;;2.96;70.25
52975;BME280;38839;45.186;5.720;2023-02-03T08:15:02;100994.94;;;3.02;70.00
52975;BME280;38839;45.186;5.720;2023-02-03T08:17:28;100998.59;;;2.76;70.87
52975;BME280;38839;45.186;5.720;2023-02-03T08:19:53;100993.34;;;2.89;70.72
52975;BME280;38839;45.186;5.720;2023-02-03T08:22:19;100999.28;;;2.88;70.75
52975;BME280;38839;45.186;5.720;2023-02-03T08:24:47;100992.34;;;3.02;70.32
52975;BME280;38839;45.186;5.720;2023-02-03T08:27:21;100994.03;;;3.16;69.86
52975;BME280;38839;45.186;5.720;2023-02-03T08:29:46;100984.16;;;3.09;69.83
52975;BME280;38839;45.186;5.720;2023-02-03T08:32:15;100981.50;;;3.08;69.92
52975;BME280;38839;45.186;5.720;2023-02-03T08:34:41;100979.69;;;3.21;69.31
52975;BME280;38839;45.186;5.720;2023-02-03T08:37:07;100957.97;;;3.33;69.09
52975;BME280;38839;45.186;5.720;2023-02-03T08:39:33;100967.16;;;3.44;68.84
52975;BME280;38839;45.186;5.720;2023-02-03T08:41:58;100962.34;;;3.50;68.70
52975;BME280;38839;45.186;5.720;2023-02-03T08:44:24;100964.25;;;3.38;68.80
52975;BME280;38839;45.186;5.720;2023-02-03T08:46:50;100977.47;;;3.44;68.32
52975;BME280;38839;45.186;5.720;2023-02-03T08:49:16;100980.25;;;3.47;68.43
52975;BME280;38839;45.186;5.720;2023-02-03T08:51:44;100967.81;;;3.56;68.45
52975;BME280;38839;45.186;5.720;2023-02-03T08:54:10;100965.53;;;3.61;68.03
52975;BME280;38839;45.186;5.720;2023-02-03T08:56:35;100970.09;;;3.67;67.84
52975;BME280;38839;45.186;5.720;2023-02-03T08:59:01;100977.78;;;3.34;68.28
52975;BME280;38839;45.186;5.720;2023-02-03T09:01:26;100979.56;;;3.35;68.59
52975;BME280;38839;45.186;5.720;2023-02-03T09:03:51;100976.69;;;3.45;68.41
52975;BME280;38839;45.186;5.720;2023-02-03T09:06:17;100980.66;;;3.55;68.13
52975;BME280;38839;45.186;5.720;2023-02-03T09:08:43;100972.53;;;3.80;67.38
52975;BME280;38839;45.186;5.720;2023-02-03T09:11:09;100979.22;;;4.26;66.46
52975;BME280;38839;45.186;5.720;2023-02-03T09:13:35;100983.59;;;4.61;65.26
52975;BME280;38839;45.186;5.720;2023-02-03T09:16:01;100973.97;;;4.93;64.15
52975;BME280;38839;45.186;5.720;2023-02-03T09:18:27;100972.19;;;4.92;64.06
52975;BME280;38839;45.186;5.720;2023-02-03T09:20:59;100971.81;;;5.02;63.71
52975;BME280;38839;45.186;5.720;2023-02-03T09:23:25;100978.84;;;5.22;63.14
52975;BME280;38839;45.186;5.720;2023-02-03T09:25:50;100982.91;;;5.17;62.96
52975;BME280;38839;45.186;5.720;2023-02-03T09:28:15;100990.44;;;5.31;62.58
52975;BME280;38839;45.186;5.720;2023-02-03T09:30:41;100988.88;;;5.52;62.18
52975;BME280;38839;45.186;5.720;2023-02-03T09:33:06;100976.63;;;5.68;61.82
52975;BME280;38839;45.186;5.720;2023-02-03T09:35:31;100990.56;;;5.89;61.25
52975;BME280;38839;45.186;5.720;2023-02-03T09:37:57;100988.28;;;5.77;61.35
52975;BME280;38839;45.186;5.720;2023-02-03T09:40:33;100982.81;;;6.09;60.87
52975;BME280;38839;45.186;5.720;2023-02-03T09:45:31;100979.00;;;6.20;60.32
52975;BME280;38839;45.186;5.720;2023-02-03T09:48:02;100973.88;;;6.41;59.78
52975;BME280;38839;45.186;5.720;2023-02-03T09:50:32;100979.50;;;6.11;59.13
52975;BME280;38839;45.186;5.720;2023-02-03T09:53:04;100979.50;;;5.74;60.20
52975;BME280;38839;45.186;5.720;2023-02-03T09:58:17;100993.03;;;6.25;59.12
52975;BME280;38839;45.186;5.720;2023-02-03T10:06:13;100993.41;;;5.76;59.48
52975;BME280;38839;45.186;5.720;2023-02-03T10:14:15;100992.41;;;5.92;59.63
52975;BME280;38839;45.186;5.720;2023-02-03T10:19:54;100995.59;;;5.67;59.57
52975;BME280;38839;45.186;5.720;2023-02-03T10:22:24;100999.03;;;5.30;59.87
52975;BME280;38839;45.186;5.720;2023-02-03T10:27:40;100995.69;;;5.14;60.24
52975;BME280;38839;45.186;5.720;2023-02-03T10:32:48;100993.41;;;5.38;59.26
52975;BME280;38839;45.186;5.720;2023-02-03T10:35:15;100989.47;;;5.47;58.86
52975;BME280;38839;45.186;5.720;2023-02-03T10:37:43;100990.59;;;5.71;58.33
52975;BME280;38839;45.186;5.720;2023-02-03T10:40:12;100985.50;;;5.73;58.22
52975;BME280;38839;45.186;5.720;2023-02-03T10:42:38;100985.91;;;5.82;57.92
52975;BME280;38839;45.186;5.720;2023-02-03T10:45:23;100981.28;;;5.94;57.71
52975;BME280;38839;45.186;5.720;2023-02-03T10:47:54;100986.88;;;5.84;57.75
52975;BME280;38839;45.186;5.720;2023-02-03T10:50:25;100983.09;;;5.95;57.91
52975;BME280;38839;45.186;5.720;2023-02-03T10:55:43;100980.97;;;6.06;57.60
52975;BME280;38839;45.186;5.720;2023-02-03T10:58:16;100977.72;;;6.10;56.65
52975;BME280;38839;45.186;5.720;2023-02-03T11:00:43;100976.78;;;5.90;57.38
52975;BME280;38839;45.186;5.720;2023-02-03T11:03:25;100967.56;;;5.95;57.17
52975;BME280;38839;45.186;5.720;2023-02-03T11:06:18;100965.75;;;6.33;56.79
52975;BME280;38839;45.186;5.720;2023-02-03T11:08:45;100960.94;;;6.21;56.68
52975;BME280;38839;45.186;5.720;2023-02-03T11:13:52;100938.94;;;6.33;55.85
52975;BME280;38839;45.186;5.720;2023-02-03T11:16:18;100926.16;;;6.37;55.82
52975;BME280;38839;45.186;5.720;2023-02-03T11:18:59;100914.84;;;6.35;55.86
52975;BME280;38839;45.186;5.720;2023-02-03T11:21:42;100907.72;;;6.51;55.39
52975;BME280;38839;45.186;5.720;2023-02-03T11:24:21;100898.44;;;6.35;55.61
52975;BME280;38839;45.186;5.720;2023-02-03T11:29:37;100885.97;;;6.47;55.53
52975;BME280;38839;45.186;5.720;2023-02-03T11:32:21;100885.88;;;6.44;55.94
52975;BME280;38839;45.186;5.720;2023-02-03T11:35:02;100876.72;;;6.54;55.65
52975;BME280;38839;45.186;5.720;2023-02-03T11:37:40;100873.69;;;6.64;55.38
52975;BME280;38839;45.186;5.720;2023-02-03T11:42:32;100884.06;;;6.64;55.58
52975;BME280;38839;45.186;5.720;2023-02-03T11:45:28;100880.75;;;6.68;55.78
52975;BME280;38839;45.186;5.720;2023-02-03T11:50:40;100877.22;;;6.87;55.39
52975;BME280;38839;45.186;5.720;2023-02-03T11:53:26;100871.38;;;6.93;55.46
52975;BME280;38839;45.186;5.720;2023-02-03T12:01:43;100858.63;;;7.21;54.84
52975;BME280;38839;45.186;5.720;2023-02-03T12:07:27;100841.75;;;7.33;54.33
52975;BME280;38839;45.186;5.720;2023-02-03T12:10:02;100843.16;;;7.47;54.27
52975;BME280;38839;45.186;5.720;2023-02-03T12:18:09;100843.16;;;7.47;54.38
52975;BME280;38839;45.186;5.720;2023-02-03T12:21:02;100848.63;;;7.55;54.32
52975;BME280;38839;45.186;5.720;2023-02-03T12:24:04;100853.03;;;7.57;54.39
52975;BME280;38839;45.186;5.720;2023-02-03T12:29:41;100841.41;;;7.23;55.13
52975;BME280;38839;45.186;5.720;2023-02-03T12:32:30;100839.03;;;7.30;55.05
52975;BME280;38839;45.186;5.720;2023-02-03T12:37:42;100830.72;;;7.38;55.09
52975;BME280;38839;45.186;5.720;2023-02-03T12:40:20;100826.13;;;7.55;54.90
52975;BME280;38839;45.186;5.720;2023-02-03T12:42:58;100820.53;;;7.69;54.61
52975;BME280;38839;45.186;5.720;2023-02-03T12:45:28;100818.44;;;7.58;54.86
52975;BME280;38839;45.186;5.720;2023-02-03T12:47:56;100824.28;;;7.77;54.85
52975;BME280;38839;45.186;5.720;2023-02-03T12:50:29;100821.88;;;7.83;54.40
52975;BME280;38839;45.186;5.720;2023-02-03T12:53:01;100817.19;;;7.73;54.73
52975;BME280;38839;45.186;5.720;2023-02-03T12:55:46;100808.53;;;7.72;54.71
52975;BME280;38839;45.186;5.720;2023-02-03T12:58:24;100807.16;;;7.82;54.54
52975;BME280;38839;45.186;5.720;2023-02-03T13:00:58;100804.03;;;7.92;54.24
52975;BME280;38839;45.186;5.720;2023-02-03T13:03:34;100797.97;;;7.92;54.35
52975;BME280;38839;45.186;5.720;2023-02-03T13:06:23;100784.78;;;7.87;54.42
52975;BME280;38839;45.186;5.720;2023-02-03T13:14:50;100770.66;;;7.79;54.29
52975;BME280;38839;45.186;5.720;2023-02-03T13:17:26;100771.03;;;7.90;54.26
52975;BME280;38839;45.186;5.720;2023-02-03T13:19:59;100775.00;;;8.05;53.94
52975;BME280;38839;45.186;5.720;2023-02-03T13:22:26;100763.84;;;8.08;53.84
52975;BME280;38839;45.186;5.720;2023-02-03T13:25:06;100764.72;;;8.09;53.95
52975;BME280;38839;45.186;5.720;2023-02-03T13:36:22;100754.81;;;8.24;53.66
52975;BME280;38839;45.186;5.720;2023-02-03T13:41:40;100757.28;;;8.19;53.70
52975;BME280;38839;45.186;5.720;2023-02-03T13:44:12;100758.84;;;8.14;53.83
52975;BME280;38839;45.186;5.720;2023-02-03T13:46:40;100756.19;;;8.13;53.96
52975;BME280;38839;45.186;5.720;2023-02-03T13:49:07;100751.66;;;8.34;53.57
52975;BME280;38839;45.186;5.720;2023-02-03T13:51:41;100754.25;;;8.34;53.55
52975;BME280;38839;45.186;5.720;2023-02-03T13:54:32;100755.13;;;8.33;53.29
52975;BME280;38839;45.186;5.720;2023-02-03T13:57:03;100756.66;;;8.28;53.08
52975;BME280;38839;45.186;5.720;2023-02-03T14:12:56;100729.72;;;8.52;51.97
52975;BME280;38839;45.186;5.720;2023-02-03T14:15:28;100720.47;;;8.61;52.13
52975;BME280;38839;45.186;5.720;2023-02-03T14:17:59;100717.81;;;8.60;52.31
52975;BME280;38839;45.186;5.720;2023-02-03T14:23:08;100709.63;;;8.76;52.18
52975;BME280;38839;45.186;5.720;2023-02-03T14:25:50;100709.00;;;8.85;52.08
52975;BME280;38839;45.186;5.720;2023-02-03T14:28:21;100716.63;;;8.79;52.04
52975;BME280;38839;45.186;5.720;2023-02-03T14:31:04;100704.56;;;8.81;52.18
52975;BME280;38839;45.186;5.720;2023-02-03T14:33:50;100697.97;;;8.94;52.00
52975;BME280;38839;45.186;5.720;2023-02-03T14:36:27;100697.78;;;8.88;52.30
52975;BME280;38839;45.186;5.720;2023-02-03T14:38:55;100697.09;;;8.93;52.30
52975;BME280;38839;45.186;5.720;2023-02-03T14:41:33;100694.63;;;8.98;52.46
52975;BME280;38839;45.186;5.720;2023-02-03T14:44:11;100696.56;;;9.05;52.07
52975;BME280;38839;45.186;5.720;2023-02-03T14:47:25;100689.03;;;9.16;51.80
52975;BME280;38839;45.186;5.720;2023-02-03T14:52:59;100677.91;;;9.21;51.62
52975;BME280;38839;45.186;5.720;2023-02-03T14:58:03;100676.13;;;9.20;52.06
52975;BME280;38839;45.186;5.720;2023-02-03T15:00:33;100672.78;;;9.24;51.99
52975;BME280;38839;45.186;5.720;2023-02-03T15:05:41;100682.31;;;9.24;51.99
52975;BME280;38839;45.186;5.720;2023-02-03T15:08:36;100665.06;;;9.27;52.06
52975;BME280;38839;45.186;5.720;2023-02-03T15:11:41;100669.41;;;9.29;51.59
52975;BME280;38839;45.186;5.720;2023-02-03T15:14:21;100668.69;;;9.34;51.76
52975;BME280;38839;45.186;5.720;2023-02-03T15:16:56;100655.78;;;9.39;51.54
52975;BME280;38839;45.186;5.720;2023-02-03T15:19:26;100655.13;;;9.46;51.33
52975;BME280;38839;45.186;5.720;2023-02-03T15:21:51;100660.44;;;9.51;51.07